sensor_id;sensor_type;location;lat;lon;timestamp;P1;durP1;ratioP1;P2;durP2;ratioP2
8887;SDS011;4480;52.370;9.748;2023-03-19T00:02:18;5.70;;;5.10;;
8887;SDS011;4480;52.370;9.748;2023-03-19T00:04:46;7.10;;;6.50;;
8887;SDS011;4480;52.370;9.748;2023-03-19T00:07:14;6.40;;;5.73;;
8887;SDS011;4480;52.370;9.748;2023-03-19T00:09:41;6.97;;;5.50;;
8887;SDS011;4480;52.370;9.748;2023-03-19T00:12:08;6.43;;;5.47;;
8887;SDS011;4480;52.370;9.748;2023-03-19T00:14:36;6.63;;;5.97;;
8887;SDS011;4480;52.370;9.748;2023-03-19T00:17:02;7.30;;;6.50;;
8887;SDS011;4480;52.370;9.748;2023-03-19T00:19:29;7.67;;;6.80;;
8887;SDS011;4480;52.370;9.748;2023-03-19T00:21:56;5.53;;;5.03;;
8887;SDS011;4480;52.370;9.748;2023-03-19T00:24:24;6.43;;;5.57;;
8887;SDS011;4480;52.370;9.748;2023-03-19T00:26:50;7.43;;;6.73;;
8887;SDS011;4480;52.370;9.748;2023-03-19T00:29:17;6.80;;;6.10;;
8887;SDS011;4480;52.370;9.748;2023-03-19T00:31:45;6.57;;;5.93;;
8887;SDS011;4480;52.370;9.748;2023-03-19T00:34:11;7.20;;;6.47;;
8887;SDS011;4480;52.370;9.748;2023-03-19T00:36:38;7.20;;;6.20;;
8887;SDS011;4480;52.370;9.748;2023-03-19T00:39:05;7.87;;;6.60;;
8887;SDS011;4480;52.370;9.748;2023-03-19T00:41:34;7.27;;;6.60;;
8887;SDS011;4480;52.370;9.748;2023-03-19T00:44:01;8.70;;;6.90;;
8887;SDS011;4480;52.370;9.748;2023-03-19T00:46:28;8.13;;;6.77;;
8887;SDS011;4480;52.370;9.748;2023-03-19T00:48:55;10.55;;;7.60;;
8887;SDS011;4480;52.370;9.748;2023-03-19T00:51:23;9.93;;;7.47;;
8887;SDS011;4480;52.370;9.748;2023-03-19T00:53:50;7.80;;;7.00;;
8887;SDS011;4480;52.370;9.748;2023-03-19T00:56:18;9.33;;;7.90;;
8887;SDS011;4480;52.370;9.748;2023-03-19T00:58:46;8.53;;;7.20;;
8887;SDS011;4480;52.370;9.748;2023-03-19T01:01:14;7.93;;;7.07;;
8887;SDS011;4480;52.370;9.748;2023-03-19T01:03:42;8.50;;;7.10;;
8887;SDS011;4480;52.370;9.748;2023-03-19T01:06:10;9.60;;;8.10;;
8887;SDS011;4480;52.370;9.748;2023-03-19T01:08:37;9.82;;;8.48;;
8887;SDS011;4480;52.370;9.748;2023-03-19T01:11:05;9.80;;;8.85;;
8887;SDS011;4480;52.370;9.748;2023-03-19T01:13:33;11.88;;;8.52;;
8887;SDS011;4480;52.370;9.748;2023-03-19T01:16:01;9.47;;;8.10;;
8887;SDS011;4480;52.370;9.748;2023-03-19T01:18:28;9.80;;;8.25;;
8887;SDS011;4480;52.370;9.748;2023-03-19T01:20:55;15.38;;;8.80;;
8887;SDS011;4480;52.370;9.748;2023-03-19T01:23:22;10.18;;;9.27;;
8887;SDS011;4480;52.370;9.748;2023-03-19T01:25:49;9.80;;;8.35;;
8887;SDS011;4480;52.370;9.748;2023-03-19T01:28:16;8.52;;;7.63;;
8887;SDS011;4480;52.370;9.748;2023-03-19T01:30:43;10.63;;;8.73;;
8887;SDS011;4480;52.370;9.748;2023-03-19T01:33:11;10.90;;;8.52;;
8887;SDS011;4480;52.370;9.748;2023-03-19T01:35:38;9.95;;;8.10;;
8887;SDS011;4480;52.370;9.748;2023-03-19T01:38:05;10.10;;;8.95;;
8887;SDS011;4480;52.370;9.748;2023-03-19T01:40:32;10.35;;;8.95;;
8887;SDS011;4480;52.370;9.748;2023-03-19T01:43:10;8.95;;;8.00;;
8887;SDS011;4480;52.370;9.748;2023-03-19T01:45:40;11.00;;;9.15;;
8887;SDS011;4480;52.370;9.748;2023-03-19T01:48:14;12.45;;;10.15;;
8887;SDS011;4480;52.370;9.748;2023-03-19T01:50:45;10.00;;;8.45;;
8887;SDS011;4480;52.370;9.748;2023-03-19T01:53:17;12.27;;;9.60;;
8887;SDS011;4480;52.370;9.748;2023-03-19T01:55:48;10.88;;;9.20;;
8887;SDS011;4480;52.370;9.748;2023-03-19T01:58:15;12.93;;;11.10;;
8887;SDS011;4480;52.370;9.748;2023-03-19T02:00:42;10.32;;;9.32;;
8887;SDS011;4480;52.370;9.748;2023-03-19T02:03:11;11.90;;;9.40;;
8887;SDS011;4480;52.370;9.748;2023-03-19T02:05:38;13.13;;;11.50;;
8887;SDS011;4480;52.370;9.748;2023-03-19T02:08:08;11.05;;;9.95;;
8887;SDS011;4480;52.370;9.748;2023-03-19T02:10:39;10.80;;;9.70;;
8887;SDS011;4480;52.370;9.748;2023-03-19T02:13:07;11.15;;;9.40;;
8887;SDS011;4480;52.370;9.748;2023-03-19T02:15:34;10.73;;;9.13;;
8887;SDS011;4480;52.370;9.748;2023-03-19T02:18:00;11.43;;;9.65;;
8887;SDS011;4480;52.370;9.748;2023-03-19T02:20:30;9.77;;;8.70;;
8887;SDS011;4480;52.370;9.748;2023-03-19T02:23:02;13.02;;;10.65;;
8887;SDS011;4480;52.370;9.748;2023-03-19T02:25:37;13.40;;;10.93;;
8887;SDS011;4480;52.370;9.748;2023-03-19T02:28:10;12.70;;;10.75;;
8887;SDS011;4480;52.370;9.748;2023-03-19T02:30:38;13.55;;;11.07;;
8887;SDS011;4480;52.370;9.748;2023-03-19T02:33:05;12.48;;;10.40;;
8887;SDS011;4480;52.370;9.748;2023-03-19T02:35:32;15.93;;;11.55;;
8887;SDS011;4480;52.370;9.748;2023-03-19T02:38:00;12.13;;;10.55;;
8887;SDS011;4480;52.370;9.748;2023-03-19T02:40:30;13.60;;;12.18;;
8887;SDS011;4480;52.370;9.748;2023-03-19T02:43:01;12.68;;;11.38;;
8887;SDS011;4480;52.370;9.748;2023-03-19T02:45:30;12.10;;;10.90;;
8887;SDS011;4480;52.370;9.748;2023-03-19T02:47:57;13.52;;;11.02;;
8887;SDS011;4480;52.370;9.748;2023-03-19T02:50:24;13.18;;;11.00;;
8887;SDS011;4480;52.370;9.748;2023-03-19T02:52:51;13.45;;;11.68;;
8887;SDS011;4480;52.370;9.748;2023-03-19T02:55:18;17.27;;;10.65;;
8887;SDS011;4480;52.370;9.748;2023-03-19T02:57:46;11.55;;;10.32;;
8887;SDS011;4480;52.370;9.748;2023-03-19T03:00:13;15.75;;;11.50;;
8887;SDS011;4480;52.370;9.748;2023-03-19T03:02:44;13.93;;;11.73;;
8887;SDS011;4480;52.370;9.748;2023-03-19T03:05:11;12.38;;;11.07;;
8887;SDS011;4480;52.370;9.748;2023-03-19T03:07:38;13.80;;;11.45;;
8887;SDS011;4480;52.370;9.748;2023-03-19T03:10:07;12.88;;;10.77;;
8887;SDS011;4480;52.370;9.748;2023-03-19T03:12:35;12.10;;;10.50;;
8887;SDS011;4480;52.370;9.748;2023-03-19T03:15:02;13.68;;;10.48;;
8887;SDS011;4480;52.370;9.748;2023-03-19T03:17:30;14.60;;;12.27;;
8887;SDS011;4480;52.370;9.748;2023-03-19T03:19:58;11.95;;;10.65;;
8887;SDS011;4480;52.370;9.748;2023-03-19T03:22:25;11.35;;;10.25;;
8887;SDS011;4480;52.370;9.748;2023-03-19T03:24:51;13.88;;;11.50;;
8887;SDS011;4480;52.370;9.748;2023-03-19T03:27:18;12.27;;;10.95;;
8887;SDS011;4480;52.370;9.748;2023-03-19T03:29:45;12.57;;;10.02;;
8887;SDS011;4480;52.370;9.748;2023-03-19T03:32:12;12.43;;;10.13;;
8887;SDS011;4480;52.370;9.748;2023-03-19T03:34:40;9.82;;;8.93;;
8887;SDS011;4480;52.370;9.748;2023-03-19T03:37:08;12.43;;;11.13;;
8887;SDS011;4480;52.370;9.748;2023-03-19T03:39:35;15.40;;;11.02;;
8887;SDS011;4480;52.370;9.748;2023-03-19T03:42:02;11.70;;;10.52;;
8887;SDS011;4480;52.370;9.748;2023-03-19T03:44:29;12.50;;;10.77;;
8887;SDS011;4480;52.370;9.748;2023-03-19T03:46:55;13.68;;;10.40;;
8887;SDS011;4480;52.370;9.748;2023-03-19T03:49:22;13.50;;;11.32;;
8887;SDS011;4480;52.370;9.748;2023-03-19T03:51:49;12.50;;;10.75;;
8887;SDS011;4480;52.370;9.748;2023-03-19T03:54:18;11.60;;;9.65;;
8887;SDS011;4480;52.370;9.748;2023-03-19T03:56:45;12.65;;;11.02;;
8887;SDS011;4480;52.370;9.748;2023-03-19T03:59:14;12.00;;;10.23;;
8887;SDS011;4480;52.370;9.748;2023-03-19T04:01:41;11.95;;;10.70;;
8887;SDS011;4480;52.370;9.748;2023-03-19T04:04:08;13.98;;;12.02;;
8887;SDS011;4480;52.370;9.748;2023-03-19T04:06:34;12.70;;;11.05;;
8887;SDS011;4480;52.370;9.748;2023-03-19T04:11:22;12.10;;;10.43;;
8887;SDS011;4480;52.370;9.748;2023-03-19T04:13:49;12.73;;;10.70;;
8887;SDS011;4480;52.370;9.748;2023-03-19T04:16:16;11.02;;;9.93;;
8887;SDS011;4480;52.370;9.748;2023-03-19T04:18:42;10.13;;;9.23;;
8887;SDS011;4480;52.370;9.748;2023-03-19T04:21:09;10.32;;;9.32;;
8887;SDS011;4480;52.370;9.748;2023-03-19T04:23:36;13.38;;;10.85;;
8887;SDS011;4480;52.370;9.748;2023-03-19T04:26:03;10.95;;;9.85;;
8887;SDS011;4480;52.370;9.748;2023-03-19T04:28:33;10.93;;;9.25;;
8887;SDS011;4480;52.370;9.748;2023-03-19T04:31:00;13.68;;;10.00;;
8887;SDS011;4480;52.370;9.748;2023-03-19T04:33:28;11.95;;;10.27;;
8887;SDS011;4480;52.370;9.748;2023-03-19T04:35:57;12.95;;;10.20;;
8887;SDS011;4480;52.370;9.748;2023-03-19T04:38:24;13.20;;;10.75;;
8887;SDS011;4480;52.370;9.748;2023-03-19T04:40:51;12.82;;;11.00;;
8887;SDS011;4480;52.370;9.748;2023-03-19T04:43:18;11.23;;;10.02;;
8887;SDS011;4480;52.370;9.748;2023-03-19T04:45:47;11.32;;;10.23;;
8887;SDS011;4480;52.370;9.748;2023-03-19T04:48:14;11.55;;;10.25;;
8887;SDS011;4480;52.370;9.748;2023-03-19T04:50:42;11.35;;;10.23;;
8887;SDS011;4480;52.370;9.748;2023-03-19T04:53:09;12.57;;;11.27;;
8887;SDS011;4480;52.370;9.748;2023-03-19T04:55:36;11.40;;;9.95;;
8887;SDS011;4480;52.370;9.748;2023-03-19T04:58:03;11.95;;;10.32;;
8887;SDS011;4480;52.370;9.748;2023-03-19T05:00:30;11.23;;;10.07;;
8887;SDS011;4480;52.370;9.748;2023-03-19T05:02:58;12.95;;;11.02;;
8887;SDS011;4480;52.370;9.748;2023-03-19T05:05:25;13.02;;;10.35;;
8887;SDS011;4480;52.370;9.748;2023-03-19T05:07:52;11.15;;;9.93;;
8887;SDS011;4480;52.370;9.748;2023-03-19T05:10:19;11.98;;;10.57;;
8887;SDS011;4480;52.370;9.748;2023-03-19T05:12:46;11.55;;;10.35;;
8887;SDS011;4480;52.370;9.748;2023-03-19T05:15:13;13.50;;;10.68;;
8887;SDS011;4480;52.370;9.748;2023-03-19T05:17:40;10.55;;;9.50;;
8887;SDS011;4480;52.370;9.748;2023-03-19T05:20:11;11.35;;;9.27;;
8887;SDS011;4480;52.370;9.748;2023-03-19T05:22:39;12.05;;;9.23;;
8887;SDS011;4480;52.370;9.748;2023-03-19T05:25:06;13.65;;;9.65;;
8887;SDS011;4480;52.370;9.748;2023-03-19T05:27:33;12.20;;;9.30;;
8887;SDS011;4480;52.370;9.748;2023-03-19T05:30:00;9.65;;;8.65;;
8887;SDS011;4480;52.370;9.748;2023-03-19T05:32:27;10.65;;;9.48;;
8887;SDS011;4480;52.370;9.748;2023-03-19T05:34:54;12.23;;;10.10;;
8887;SDS011;4480;52.370;9.748;2023-03-19T05:37:22;10.10;;;8.60;;
8887;SDS011;4480;52.370;9.748;2023-03-19T05:39:49;10.15;;;9.15;;
8887;SDS011;4480;52.370;9.748;2023-03-19T05:42:16;10.38;;;9.10;;
8887;SDS011;4480;52.370;9.748;2023-03-19T05:44:43;8.52;;;7.70;;
8887;SDS011;4480;52.370;9.748;2023-03-19T05:47:10;10.25;;;9.25;;
8887;SDS011;4480;52.370;9.748;2023-03-19T05:49:37;9.60;;;8.45;;
8887;SDS011;4480;52.370;9.748;2023-03-19T05:52:03;8.90;;;7.90;;
8887;SDS011;4480;52.370;9.748;2023-03-19T05:54:33;10.60;;;8.25;;
8887;SDS011;4480;52.370;9.748;2023-03-19T05:57:00;10.23;;;9.32;;
8887;SDS011;4480;52.370;9.748;2023-03-19T05:59:27;9.75;;;8.63;;
8887;SDS011;4480;52.370;9.748;2023-03-19T06:01:54;8.93;;;7.10;;
8887;SDS011;4480;52.370;9.748;2023-03-19T06:04:20;8.13;;;7.30;;
8887;SDS011;4480;52.370;9.748;2023-03-19T06:06:47;9.15;;;7.95;;
8887;SDS011;4480;52.370;9.748;2023-03-19T06:09:14;9.50;;;8.50;;
8887;SDS011;4480;52.370;9.748;2023-03-19T06:11:42;9.27;;;8.20;;
8887;SDS011;4480;52.370;9.748;2023-03-19T06:14:09;10.90;;;8.20;;
8887;SDS011;4480;52.370;9.748;2023-03-19T06:16:36;10.17;;;7.73;;
8887;SDS011;4480;52.370;9.748;2023-03-19T06:19:02;7.23;;;6.53;;
8887;SDS011;4480;52.370;9.748;2023-03-19T06:21:29;7.10;;;6.40;;
8887;SDS011;4480;52.370;9.748;2023-03-19T06:23:56;9.03;;;7.10;;
8887;SDS011;4480;52.370;9.748;2023-03-19T06:26:23;7.53;;;6.27;;
8887;SDS011;4480;52.370;9.748;2023-03-19T06:28:52;10.27;;;7.37;;
8887;SDS011;4480;52.370;9.748;2023-03-19T06:31:19;7.93;;;7.00;;
8887;SDS011;4480;52.370;9.748;2023-03-19T06:33:46;7.30;;;6.57;;
8887;SDS011;4480;52.370;9.748;2023-03-19T06:36:14;8.10;;;6.70;;
8887;SDS011;4480;52.370;9.748;2023-03-19T06:38:41;7.53;;;6.17;;
8887;SDS011;4480;52.370;9.748;2023-03-19T06:41:08;7.40;;;6.37;;
8887;SDS011;4480;52.370;9.748;2023-03-19T06:43:35;8.50;;;6.50;;
8887;SDS011;4480;52.370;9.748;2023-03-19T06:46:03;7.23;;;6.33;;
8887;SDS011;4480;52.370;9.748;2023-03-19T06:48:31;7.10;;;5.53;;
8887;SDS011;4480;52.370;9.748;2023-03-19T06:50:57;6.67;;;6.07;;
8887;SDS011;4480;52.370;9.748;2023-03-19T06:53:24;6.30;;;5.70;;
8887;SDS011;4480;52.370;9.748;2023-03-19T06:55:51;8.90;;;6.63;;
8887;SDS011;4480;52.370;9.748;2023-03-19T06:58:18;6.20;;;5.57;;
8887;SDS011;4480;52.370;9.748;2023-03-19T07:00:45;6.00;;;5.50;;
8887;SDS011;4480;52.370;9.748;2023-03-19T07:03:13;7.03;;;5.10;;
8887;SDS011;4480;52.370;9.748;2023-03-19T07:05:40;6.17;;;5.03;;
8887;SDS011;4480;52.370;9.748;2023-03-19T07:08:07;5.90;;;5.30;;
8887;SDS011;4480;52.370;9.748;2023-03-19T07:10:36;8.10;;;5.43;;
8887;SDS011;4480;52.370;9.748;2023-03-19T07:13:02;6.53;;;4.30;;
8887;SDS011;4480;52.370;9.748;2023-03-19T07:15:29;6.73;;;5.77;;
8887;SDS011;4480;52.370;9.748;2023-03-19T07:17:56;6.23;;;4.83;;
8887;SDS011;4480;52.370;9.748;2023-03-19T07:20:24;5.53;;;5.03;;
8887;SDS011;4480;52.370;9.748;2023-03-19T07:22:51;6.37;;;5.60;;
8887;SDS011;4480;52.370;9.748;2023-03-19T07:25:18;6.07;;;4.93;;
8887;SDS011;4480;52.370;9.748;2023-03-19T07:27:45;8.23;;;5.97;;
8887;SDS011;4480;52.370;9.748;2023-03-19T07:30:13;6.10;;;4.67;;
8887;SDS011;4480;52.370;9.748;2023-03-19T07:32:40;4.77;;;4.33;;
8887;SDS011;4480;52.370;9.748;2023-03-19T07:35:07;5.80;;;4.63;;
8887;SDS011;4480;52.370;9.748;2023-03-19T07:37:35;5.70;;;4.40;;
8887;SDS011;4480;52.370;9.748;2023-03-19T07:40:02;5.73;;;5.23;;
8887;SDS011;4480;52.370;9.748;2023-03-19T07:42:30;5.30;;;4.40;;
8887;SDS011;4480;52.370;9.748;2023-03-19T07:44:56;5.87;;;4.37;;
8887;SDS011;4480;52.370;9.748;2023-03-19T07:47:23;4.90;;;4.50;;
8887;SDS011;4480;52.370;9.748;2023-03-19T07:49:50;7.83;;;4.77;;
8887;SDS011;4480;52.370;9.748;2023-03-19T07:52:17;6.43;;;4.80;;
8887;SDS011;4480;52.370;9.748;2023-03-19T07:54:45;8.13;;;4.83;;
8887;SDS011;4480;52.370;9.748;2023-03-19T07:57:12;4.73;;;4.20;;
8887;SDS011;4480;52.370;9.748;2023-03-19T07:59:40;7.63;;;4.97;;
8887;SDS011;4480;52.370;9.748;2023-03-19T08:02:08;5.63;;;4.50;;
8887;SDS011;4480;52.370;9.748;2023-03-19T08:04:35;5.50;;;4.67;;
8887;SDS011;4480;52.370;9.748;2023-03-19T08:07:02;10.17;;;4.73;;
8887;SDS011;4480;52.370;9.748;2023-03-19T08:09:29;4.77;;;4.37;;
8887;SDS011;4480;52.370;9.748;2023-03-19T08:11:57;7.57;;;5.00;;
8887;SDS011;4480;52.370;9.748;2023-03-19T08:14:24;5.53;;;4.77;;
8887;SDS011;4480;52.370;9.748;2023-03-19T08:16:51;8.13;;;4.27;;
8887;SDS011;4480;52.370;9.748;2023-03-19T08:19:18;5.10;;;4.60;;
8887;SDS011;4480;52.370;9.748;2023-03-19T08:21:44;6.23;;;4.30;;
8887;SDS011;4480;52.370;9.748;2023-03-19T08:24:11;6.20;;;4.50;;
8887;SDS011;4480;52.370;9.748;2023-03-19T08:26:38;4.50;;;4.00;;
8887;SDS011;4480;52.370;9.748;2023-03-19T08:29:06;5.27;;;4.77;;
8887;SDS011;4480;52.370;9.748;2023-03-19T08:31:33;4.67;;;3.97;;
8887;SDS011;4480;52.370;9.748;2023-03-19T08:33:59;4.17;;;3.70;;
8887;SDS011;4480;52.370;9.748;2023-03-19T08:36:27;6.13;;;4.17;;
8887;SDS011;4480;52.370;9.748;2023-03-19T08:38:54;8.90;;;3.77;;
8887;SDS011;4480;52.370;9.748;2023-03-19T08:41:23;5.20;;;3.90;;
8887;SDS011;4480;52.370;9.748;2023-03-19T08:43:50;5.47;;;3.67;;
8887;SDS011;4480;52.370;9.748;2023-03-19T08:46:18;3.97;;;3.57;;
8887;SDS011;4480;52.370;9.748;2023-03-19T08:48:45;5.50;;;3.20;;
8887;SDS011;4480;52.370;9.748;2023-03-19T08:51:12;3.30;;;3.00;;
8887;SDS011;4480;52.370;9.748;2023-03-19T08:53:38;4.17;;;3.70;;
8887;SDS011;4480;52.370;9.748;2023-03-19T08:56:05;4.43;;;3.57;;
8887;SDS011;4480;52.370;9.748;2023-03-19T08:58:33;4.30;;;3.10;;
8887;SDS011;4480;52.370;9.748;2023-03-19T09:01:00;5.10;;;3.47;;
8887;SDS011;4480;52.370;9.748;2023-03-19T09:03:29;5.30;;;3.13;;
8887;SDS011;4480;52.370;9.748;2023-03-19T09:05:57;3.90;;;3.33;;
8887;SDS011;4480;52.370;9.748;2023-03-19T09:08:25;4.50;;;3.20;;
8887;SDS011;4480;52.370;9.748;2023-03-19T09:10:52;4.83;;;3.47;;
8887;SDS011;4480;52.370;9.748;2023-03-19T09:13:19;3.43;;;2.80;;
8887;SDS011;4480;52.370;9.748;2023-03-19T09:15:46;3.83;;;3.20;;
8887;SDS011;4480;52.370;9.748;2023-03-19T09:18:13;5.80;;;2.70;;
8887;SDS011;4480;52.370;9.748;2023-03-19T09:20:41;3.30;;;2.47;;
8887;SDS011;4480;52.370;9.748;2023-03-19T09:23:08;3.83;;;2.70;;
8887;SDS011;4480;52.370;9.748;2023-03-19T09:25:35;3.40;;;2.77;;
8887;SDS011;4480;52.370;9.748;2023-03-19T09:28:02;3.90;;;2.80;;
8887;SDS011;4480;52.370;9.748;2023-03-19T09:30:29;3.40;;;3.10;;
8887;SDS011;4480;52.370;9.748;2023-03-19T09:32:56;3.20;;;2.80;;
8887;SDS011;4480;52.370;9.748;2023-03-19T09:35:22;2.87;;;2.40;;
8887;SDS011;4480;52.370;9.748;2023-03-19T09:37:56;2.97;;;2.50;;
8887;SDS011;4480;52.370;9.748;2023-03-19T09:40:23;2.90;;;2.27;;
8887;SDS011;4480;52.370;9.748;2023-03-19T09:42:56;2.83;;;1.93;;
8887;SDS011;4480;52.370;9.748;2023-03-19T09:45:30;3.93;;;2.27;;
8887;SDS011;4480;52.370;9.748;2023-03-19T09:47:57;2.73;;;2.40;;
8887;SDS011;4480;52.370;9.748;2023-03-19T09:50:29;2.63;;;2.03;;
8887;SDS011;4480;52.370;9.748;2023-03-19T09:53:02;2.23;;;1.83;;
8887;SDS011;4480;52.370;9.748;2023-03-19T09:55:39;2.30;;;1.83;;
8887;SDS011;4480;52.370;9.748;2023-03-19T09:58:09;2.27;;;1.60;;
8887;SDS011;4480;52.370;9.748;2023-03-19T10:00:40;2.00;;;1.83;;
8887;SDS011;4480;52.370;9.748;2023-03-19T10:03:16;2.00;;;1.80;;
8887;SDS011;4480;52.370;9.748;2023-03-19T10:05:56;2.07;;;1.80;;
8887;SDS011;4480;52.370;9.748;2023-03-19T10:08:47;3.00;;;1.63;;
8887;SDS011;4480;52.370;9.748;2023-03-19T10:11:38;2.93;;;1.87;;
8887;SDS011;4480;52.370;9.748;2023-03-19T10:14:24;2.37;;;2.17;;
8887;SDS011;4480;52.370;9.748;2023-03-19T10:17:06;3.23;;;2.23;;
8887;SDS011;4480;52.370;9.748;2023-03-19T10:19:39;3.37;;;1.90;;
8887;SDS011;4480;52.370;9.748;2023-03-19T10:22:10;2.13;;;1.50;;
8887;SDS011;4480;52.370;9.748;2023-03-19T10:24:43;3.07;;;2.37;;
8887;SDS011;4480;52.370;9.748;2023-03-19T10:27:12;2.83;;;1.60;;
8887;SDS011;4480;52.370;9.748;2023-03-19T10:29:40;2.80;;;2.20;;
8887;SDS011;4480;52.370;9.748;2023-03-19T10:32:10;2.60;;;2.30;;
8887;SDS011;4480;52.370;9.748;2023-03-19T10:34:43;5.43;;;1.70;;
8887;SDS011;4480;52.370;9.748;2023-03-19T10:37:13;1.93;;;1.73;;
8887;SDS011;4480;52.370;9.748;2023-03-19T10:39:43;2.47;;;2.27;;
8887;SDS011;4480;52.370;9.748;2023-03-19T10:42:25;2.20;;;1.90;;
8887;SDS011;4480;52.370;9.748;2023-03-19T10:45:09;3.10;;;2.00;;
8887;SDS011;4480;52.370;9.748;2023-03-19T10:47:45;3.03;;;2.00;;
8887;SDS011;4480;52.370;9.748;2023-03-19T10:50:14;3.03;;;1.80;;
8887;SDS011;4480;52.370;9.748;2023-03-19T10:52:42;3.53;;;1.60;;
8887;SDS011;4480;52.370;9.748;2023-03-19T10:55:13;2.40;;;1.60;;
8887;SDS011;4480;52.370;9.748;2023-03-19T10:57:42;1.90;;;1.70;;
8887;SDS011;4480;52.370;9.748;2023-03-19T11:00:15;2.30;;;1.77;;
8887;SDS011;4480;52.370;9.748;2023-03-19T11:02:47;6.10;;;1.70;;
8887;SDS011;4480;52.370;9.748;2023-03-19T11:05:22;2.20;;;1.60;;
8887;SDS011;4480;52.370;9.748;2023-03-19T11:07:53;1.90;;;1.47;;
8887;SDS011;4480;52.370;9.748;2023-03-19T11:10:24;2.37;;;1.70;;
8887;SDS011;4480;52.370;9.748;2023-03-19T11:12:54;2.60;;;2.03;;
8887;SDS011;4480;52.370;9.748;2023-03-19T11:15:23;3.20;;;2.10;;
8887;SDS011;4480;52.370;9.748;2023-03-19T11:17:57;3.57;;;1.97;;
8887;SDS011;4480;52.370;9.748;2023-03-19T11:20:29;4.07;;;1.90;;
8887;SDS011;4480;52.370;9.748;2023-03-19T11:22:57;2.80;;;1.27;;
8887;SDS011;4480;52.370;9.748;2023-03-19T11:25:29;4.43;;;1.93;;
8887;SDS011;4480;52.370;9.748;2023-03-19T11:28:00;1.40;;;1.30;;
8887;SDS011;4480;52.370;9.748;2023-03-19T11:30:31;2.50;;;2.23;;
8887;SDS011;4480;52.370;9.748;2023-03-19T11:33:07;2.67;;;1.70;;
8887;SDS011;4480;52.370;9.748;2023-03-19T11:35:59;2.17;;;1.50;;
8887;SDS011;4480;52.370;9.748;2023-03-19T11:38:32;4.50;;;2.17;;
8887;SDS011;4480;52.370;9.748;2023-03-19T11:41:09;3.23;;;1.90;;
8887;SDS011;4480;52.370;9.748;2023-03-19T11:43:49;3.20;;;1.97;;
8887;SDS011;4480;52.370;9.748;2023-03-19T11:46:25;2.30;;;1.73;;
8887;SDS011;4480;52.370;9.748;2023-03-19T11:49:06;7.57;;;3.83;;
8887;SDS011;4480;52.370;9.748;2023-03-19T11:51:52;2.30;;;2.10;;
8887;SDS011;4480;52.370;9.748;2023-03-19T11:54:28;4.10;;;2.67;;
8887;SDS011;4480;52.370;9.748;2023-03-19T11:57:01;1.87;;;1.50;;
8887;SDS011;4480;52.370;9.748;2023-03-19T12:02:27;3.57;;;1.70;;
8887;SDS011;4480;52.370;9.748;2023-03-19T12:05:12;2.10;;;1.90;;
8887;SDS011;4480;52.370;9.748;2023-03-19T12:07:49;3.53;;;2.30;;
8887;SDS011;4480;52.370;9.748;2023-03-19T12:10:27;3.50;;;2.23;;
8887;SDS011;4480;52.370;9.748;2023-03-19T12:13:06;2.93;;;2.17;;
8887;SDS011;4480;52.370;9.748;2023-03-19T12:15:45;3.73;;;1.83;;
8887;SDS011;4480;52.370;9.748;2023-03-19T12:18:22;3.53;;;1.87;;
8887;SDS011;4480;52.370;9.748;2023-03-19T12:21:02;1.73;;;1.60;;
8887;SDS011;4480;52.370;9.748;2023-03-19T12:23:40;2.70;;;1.83;;
8887;SDS011;4480;52.370;9.748;2023-03-19T12:26:21;2.13;;;1.93;;
8887;SDS011;4480;52.370;9.748;2023-03-19T12:28:57;1.97;;;1.23;;
8887;SDS011;4480;52.370;9.748;2023-03-19T12:31:37;2.30;;;1.43;;
8887;SDS011;4480;52.370;9.748;2023-03-19T12:34:15;3.43;;;1.77;;
8887;SDS011;4480;52.370;9.748;2023-03-19T12:36:48;4.37;;;1.53;;
8887;SDS011;4480;52.370;9.748;2023-03-19T12:39:20;1.80;;;1.40;;
8887;SDS011;4480;52.370;9.748;2023-03-19T12:41:51;2.50;;;1.70;;
8887;SDS011;4480;52.370;9.748;2023-03-19T12:44:22;3.63;;;1.70;;
8887;SDS011;4480;52.370;9.748;2023-03-19T12:46:54;1.73;;;1.63;;
8887;SDS011;4480;52.370;9.748;2023-03-19T12:49:24;3.30;;;1.60;;
8887;SDS011;4480;52.370;9.748;2023-03-19T12:51:56;4.60;;;1.70;;
8887;SDS011;4480;52.370;9.748;2023-03-19T12:54:28;2.00;;;1.60;;
8887;SDS011;4480;52.370;9.748;2023-03-19T12:57:01;1.90;;;1.50;;
8887;SDS011;4480;52.370;9.748;2023-03-19T12:59:35;1.70;;;1.40;;
8887;SDS011;4480;52.370;9.748;2023-03-19T13:02:08;4.07;;;1.57;;
8887;SDS011;4480;52.370;9.748;2023-03-19T13:04:49;3.20;;;1.47;;
8887;SDS011;4480;52.370;9.748;2023-03-19T13:07:20;2.70;;;1.70;;
8887;SDS011;4480;52.370;9.748;2023-03-19T13:09:52;2.90;;;1.80;;
8887;SDS011;4480;52.370;9.748;2023-03-19T13:12:26;2.80;;;1.40;;
8887;SDS011;4480;52.370;9.748;2023-03-19T13:14:57;2.40;;;1.63;;
8887;SDS011;4480;52.370;9.748;2023-03-19T13:17:33;2.60;;;1.80;;
8887;SDS011;4480;52.370;9.748;2023-03-19T13:20:06;1.63;;;1.53;;
8887;SDS011;4480;52.370;9.748;2023-03-19T13:22:43;2.10;;;1.60;;
8887;SDS011;4480;52.370;9.748;2023-03-19T13:25:16;4.67;;;1.80;;
8887;SDS011;4480;52.370;9.748;2023-03-19T13:27:51;3.83;;;2.00;;
8887;SDS011;4480;52.370;9.748;2023-03-19T13:30:21;2.13;;;1.30;;
8887;SDS011;4480;52.370;9.748;2023-03-19T13:32:50;3.87;;;1.83;;
8887;SDS011;4480;52.370;9.748;2023-03-19T13:35:27;2.07;;;1.67;;
8887;SDS011;4480;52.370;9.748;2023-03-19T13:38:01;4.70;;;2.10;;
8887;SDS011;4480;52.370;9.748;2023-03-19T13:40:37;3.20;;;2.37;;
8887;SDS011;4480;52.370;9.748;2023-03-19T13:43:19;3.20;;;2.90;;
8887;SDS011;4480;52.370;9.748;2023-03-19T13:46:28;3.03;;;2.67;;
8887;SDS011;4480;52.370;9.748;2023-03-19T13:49:02;3.80;;;2.67;;
8887;SDS011;4480;52.370;9.748;2023-03-19T13:51:49;4.40;;;3.37;;
8887;SDS011;4480;52.370;9.748;2023-03-19T13:54:16;3.73;;;3.43;;
8887;SDS011;4480;52.370;9.748;2023-03-19T13:56:54;4.83;;;3.90;;
8887;SDS011;4480;52.370;9.748;2023-03-19T13:59:31;5.77;;;4.03;;
8887;SDS011;4480;52.370;9.748;2023-03-19T14:02:00;4.20;;;3.43;;
8887;SDS011;4480;52.370;9.748;2023-03-19T14:04:28;6.03;;;4.20;;
8887;SDS011;4480;52.370;9.748;2023-03-19T14:06:57;5.30;;;4.80;;
8887;SDS011;4480;52.370;9.748;2023-03-19T14:09:35;4.73;;;4.30;;
8887;SDS011;4480;52.370;9.748;2023-03-19T14:12:09;6.10;;;4.07;;
8887;SDS011;4480;52.370;9.748;2023-03-19T14:14:46;6.47;;;4.47;;
8887;SDS011;4480;52.370;9.748;2023-03-19T14:17:17;5.97;;;4.50;;
8887;SDS011;4480;52.370;9.748;2023-03-19T14:19:46;5.67;;;4.40;;
8887;SDS011;4480;52.370;9.748;2023-03-19T14:22:18;5.20;;;4.70;;
8887;SDS011;4480;52.370;9.748;2023-03-19T14:24:54;5.97;;;4.03;;
8887;SDS011;4480;52.370;9.748;2023-03-19T14:27:27;6.97;;;4.50;;
8887;SDS011;4480;52.370;9.748;2023-03-19T14:29:57;5.50;;;3.90;;
8887;SDS011;4480;52.370;9.748;2023-03-19T14:32:30;4.97;;;4.33;;
8887;SDS011;4480;52.370;9.748;2023-03-19T14:35:00;7.17;;;4.33;;
8887;SDS011;4480;52.370;9.748;2023-03-19T14:37:32;5.90;;;4.37;;
8887;SDS011;4480;52.370;9.748;2023-03-19T14:40:08;6.77;;;4.20;;
8887;SDS011;4480;52.370;9.748;2023-03-19T14:42:38;4.57;;;3.97;;
8887;SDS011;4480;52.370;9.748;2023-03-19T14:48:14;3.80;;;3.50;;
8887;SDS011;4480;52.370;9.748;2023-03-19T14:53:49;3.93;;;3.60;;
8887;SDS011;4480;52.370;9.748;2023-03-19T14:56:19;4.13;;;3.73;;
8887;SDS011;4480;52.370;9.748;2023-03-19T14:58:49;4.10;;;3.60;;
8887;SDS011;4480;52.370;9.748;2023-03-19T15:01:18;4.97;;;3.43;;
8887;SDS011;4480;52.370;9.748;2023-03-19T15:03:51;4.40;;;3.40;;
8887;SDS011;4480;52.370;9.748;2023-03-19T15:06:20;3.80;;;3.50;;
8887;SDS011;4480;52.370;9.748;2023-03-19T15:08:47;4.27;;;3.70;;
8887;SDS011;4480;52.370;9.748;2023-03-19T15:11:24;5.47;;;3.90;;
8887;SDS011;4480;52.370;9.748;2023-03-19T15:14:10;8.93;;;4.40;;
8887;SDS011;4480;52.370;9.748;2023-03-19T15:16:55;4.90;;;4.40;;
8887;SDS011;4480;52.370;9.748;2023-03-19T15:19:32;6.00;;;4.67;;
8887;SDS011;4480;52.370;9.748;2023-03-19T15:22:08;7.23;;;4.17;;
8887;SDS011;4480;52.370;9.748;2023-03-19T15:24:38;4.23;;;3.67;;
8887;SDS011;4480;52.370;9.748;2023-03-19T15:27:18;5.10;;;4.70;;
8887;SDS011;4480;52.370;9.748;2023-03-19T15:29:47;4.97;;;4.27;;
8887;SDS011;4480;52.370;9.748;2023-03-19T15:32:29;4.30;;;3.90;;
8887;SDS011;4480;52.370;9.748;2023-03-19T15:34:58;4.83;;;4.20;;
8887;SDS011;4480;52.370;9.748;2023-03-19T15:37:26;5.50;;;4.30;;
8887;SDS011;4480;52.370;9.748;2023-03-19T15:39:55;5.40;;;4.30;;